Nearby METAR Reports

 

CYUL - Montreal/Dorval, Quebec, Canada
Distance from station: ENE 6km
Updated: 10/15/2021 15:00 EDT
Overcast
Overcast
 Wind from N
Wind: N 11 km/h
Temperature: 20°C
Dew Point: 17°C
Humidity: 83%
Barometer: 1009.5 hPa
Clouds: Overcast
Visibility: 24 km
Cloud details: Mostly cloudy 914 m
Overcast 1981 m
2021/10/15 19:00 CYUL 151900Z 35006KT 15SM BKN030 OVC065 20/17 A2981 RMK SC6SC2 SLP095 DENSITY ALT 900FT
CWVQ - Ste Anne De Bell, Quebec, Canada
Distance from station: WSW 10km
Updated: 10/15/2021 15:00 EDT

 Wind from N
Wind: N 7 km/h
Temperature: 19°C
Dew Point: 16°C
Humidity: 83%
2021/10/15 19:00 CWVQ 151900Z AUTO 01004KT 19/16 RMK AO1 SLP095 T01940164 55013
 
CWTA - Mc Tavish (aut), Quebec, Canada
Distance from station: ENE 18km
Updated: 10/15/2021 15:00 EDT

 Wind from ENE
Wind: ENE 2 km/h
Temperature: 20°C
Dew Point: 16°C
Humidity: 78%
2021/10/15 19:00 CWTA 151900Z AUTO 06001KT 20/16 RMK AO1 SLP094 T02000161 56013
CYMX - Montreal/Mirabel, Quebec, Canada
Distance from station: NW 29km
Updated: 10/15/2021 15:00 EDT
Mist, Overcast
Mist, Overcast
 Wind from varies
Wind: varies 4 km/h
Temperature: 17°C
Dew Point: 15°C
Humidity: 88%
Barometer: 1009.5 hPa
Summary: Mist
Clouds: Overcast
Visibility: 6 km
Cloud details: Partly cloudy 213 m
Mostly cloudy 701 m
Overcast 1158 m
2021/10/15 19:00 CYMX 151900Z VRB02KT 4SM BR SCT007 BKN023 OVC038 17/15 A2981 RMK ST4SC3SC1 SLP098 DENSITY ALT 700FT
 
CYHU - Saint Hubert Arp, Quebec, Canada
Distance from station: ENE 31km
Updated: 10/15/2021 15:00 EDT
Overcast
Overcast
 Wind from N
Wind: N 11 km/h
Temperature: 20°C
Dew Point: 17°C
Humidity: 83%
Barometer: 1009.1 hPa
Clouds: Overcast
Visibility: 14 km
Cloud details: Mostly cloudy 1280 m
Mostly cloudy 1676 m
Overcast 2377 m
2021/10/15 19:00 CYHU 151900Z AUTO 35006KT 9SM BKN042 BKN055 OVC078 20/17 A2980 RMK SLP093 DENSITY ALT 900FT
CWIT - St Clothilde (a, Quebec, Canada
Distance from station: SSE 33km
Updated: 10/15/2021 15:00 EDT

 Wind from ENE
Wind: ENE 2 km/h
Temperature: 22°C
Dew Point: 16°C
Humidity: 69%
2021/10/15 19:00 CWIT 151900Z AUTO 07001KT 22/16 RMK AO1 SLP087 T02150155 56016
 
CWIZ - L'acadie, Quebec, Canada
Distance from station: ESE 41km
Updated: 10/15/2021 15:00 EDT

 Wind from S
Wind: S 15 km/h
Temperature: 21°C
Dew Point: 16°C
Humidity: 73%
2021/10/15 19:00 CWIZ 151900Z AUTO 19008KT 21/16 RMK AO1 T02070159
CWHM - Varennes, Quebec, Canada
Distance from station: NE 45km
Updated: 10/25/2016 10:00 EDT
NOT Current

 Wind from W
Wind: W 19 km/h, Gust: 28 km/h
Temperature: 4°C
Wind Chill: 0°C
Dew Point: -2°C
Humidity: 65%
2016/10/25 14:00 CWHM 251400Z AUTO 28010G15KT 04/M02 RMK AO1 PK WND 28018/1302 T00391017
 
CWEW - L'assomption, Quebec, Canada
Distance from station: NE 50km
Updated: 10/15/2021 15:00 EDT

 Wind from NNW
Wind: NNW 6 km/h
Temperature: 16°C
Dew Point: 15°C
Humidity: 94%
2021/10/15 19:00 CWEW 151900Z AUTO 33003KT 16/15 RMK AO1 SLP103 T01630152 57012
CWBZ - St Anicet, Quebec, Canada
Distance from station: SW 52km
Updated: 10/15/2021 15:00 EDT

 Wind from W
Wind: W 9 km/h
Temperature: 21°C
Dew Point: 17°C
Humidity: 78%
2021/10/15 19:00 CWBZ 151900Z AUTO 27005KT 21/17 RMK AO1 SLP091 T02120170 55009
 
KFSO - Highgate, Vermont, USA
Distance from station: SE 79km
Updated: 10/15/2021 10:35 EDT
NOT Current

 
2021/10/15 14:35 KFSO 151435Z AUTO RMK AO2 PWINO
CMGB - Granby, Quebec, Canada
Distance from station: E 81km
Updated: 10/15/2021 15:00 EDT

 Wind from calm
Wind: Calm
Temperature: 21°C
Dew Point: 16°C
Humidity: 73%
2021/10/15 19:00 CMGB 151900Z AUTO 00000KT 21/16 RMK AO1 SLP093 T02140161 56019
 
CWJT - St Jovite (autob, Quebec, Canada
Distance from station: NW 88km
Updated: 10/15/2021 15:00 EDT

 Wind from SSW
Wind: SSW 2 km/h
Temperature: 17°C
Dew Point: 17°C
Humidity: 100%
2021/10/15 19:00 CWJT 151900Z AUTO 21001KT 17/17 RMK AO1 SLP092 T01680166 58010
CWFQ - Frelighsburg, Quebec, Canada
Distance from station: ESE 90km
Updated: 10/15/2021 15:00 EDT

 Wind from S
Wind: S 7 km/h
Temperature: 21°C
Dew Point: 15°C
Humidity: 69%
2021/10/15 19:00 CWFQ 151900Z AUTO 17004KT 21/15 RMK AO1 SLP096 T02070153 56016
 
KPBG - Plattsburgh Afb, New York, USA
Distance from station: SSE 93km
Updated: 10/15/2021 14:53 EDT
Mostly cloudy
Mostly cloudy
 Wind from SE
Wind: SE 19 km/h
Temperature: 21°C
Dew Point: 17°C
Humidity: 78%
Barometer: 1009.5 hPa
Clouds: Mostly cloudy
Visibility: 16 km
Cloud details: Mostly cloudy 945 m
2021/10/15 18:53 KPBG 151853Z AUTO 14010KT 10SM BKN031 21/17 A2981 RMK AO2 SLP095 T02060167
KMSS - Massena, New York, USA
Distance from station: SW 100km
Updated: 10/15/2021 15:27 EDT
Mist, Overcast
Mist, Overcast
 Wind from WSW
Wind: WSW 9 km/h
Temperature: 20°C
Dew Point: 19°C
Humidity: 94%
Barometer: 1010.2 hPa
Summary: Mist
Clouds: Overcast
Visibility: 6 km
Cloud details: Partly cloudy 152 m
Mostly cloudy 488 m
Overcast 823 m
2021/10/15 19:27 KMSS 151927Z AUTO 24005KT 4SM BR SCT005 BKN016 OVC027 20/19 A2983 RMK AO2 RAE03 P0000 T02000189
 
CWBS - Lac St Pierre (a, Quebec, Canada
Distance from station: NE 106km
Updated: 10/15/2021 15:00 EDT

 Wind from N
Wind: N 7 km/h
Temperature: 17°C
Dew Point: 15°C
Humidity: 88%
2021/10/15 19:00 CWBS 151900Z AUTO 36004KT 17/15 RMK AO1 T01660148
KBTV - Burlington, Vermont, USA
Distance from station: SSE 121km
Updated: 10/15/2021 14:54 EDT
Mostly cloudy
Mostly cloudy
 Wind from S
Wind: S 17 km/h, Gust: 35 km/h
Temperature: 22°C
Dew Point: 15°C
Humidity: 65%
Barometer: 1010.2 hPa
Clouds: Mostly cloudy
Visibility: 16 km
Cloud details: Few Clouds 2134 m
Partly cloudy 2896 m
Mostly cloudy 4572 m
2021/10/15 18:54 KBTV 151854Z 19009G19KT 10SM FEW070 SCT095 BKN150 22/15 A2983 RMK AO2 SLP100 T02220150
 
KSLK - Saranac Lake, New York, USA
Distance from station: SSW 121km
Updated: 10/15/2021 15:12 EDT
Overcast
Overcast
 Wind from SW
Wind: SW 9 km/h
Temperature: 18°C
Dew Point: 17°C
Humidity: 94%
Barometer: 1011.5 hPa
Clouds: Overcast
Visibility: 16 km
Cloud details: Overcast 274 m
2021/10/15 19:12 KSLK 151912Z AUTO 23005KT 10SM OVC009 18/17 A2987 RMK AO2 T01780167
CWNQ - Nicolet (autob), Quebec, Canada
Distance from station: NE 123km
Updated: 10/15/2021 15:00 EDT

 Wind from NE
Wind: NE 6 km/h
Temperature: 18°C
Dew Point: 15°C
Humidity: 83%
2021/10/15 19:00 CWNQ 151900Z AUTO 04003KT 18/15 RMK AO1 SLP100 T01820150 56015
 
KMWN - Mount Washington, New Hampshire, USA
Distance from station: SE 237km
Updated: 10/15/2021 14:53 EDT

 Wind from W
Wind: W 31 km/h
Visibility: 8 km
2021/10/15 18:53 KMWN 151853Z COR 28017KT 5SM BKN/// FEW/// BKN002 BKN005 BKN020 BKN050 09/08 RMK VIS SW 30 BBLO FEW DSNT SW BKN W-S LIMITING VIS TO 5SM INTMT FG
CYVR - Vancouver Intl A, British Columbia, Canada
Distance from station: NW 3676km
Updated: 10/15/2021 15:00 EDT
Light rain, Overcast
Light rain, Overcast
 Wind from ESE
Wind: ESE 26 km/h, Gust: 39 km/h
Temperature: 12°C
Dew Point: 11°C
Humidity: 94%
Barometer: 1018.6 hPa
Summary: Light rain
Clouds: Overcast
Visibility: 21 km
Cloud details: Mostly cloudy 244 m
Overcast 610 m
2021/10/15 19:00 CYVR 151900Z 11014G21KT 13SM -RA BKN008 OVC020 12/11 A3008 RMK CU6NS2 SLP189